Time;durP1;ratioP1;P1;durP2;ratioP2;P2;SDS_P1;SDS_P2;PMS_P1;PMS_P2;Temp;Humidity;BMP_temperature;BMP_pressure;BME280_temperature;BME280_humidity;BME280_pressure;Samples;Min_cycle;Max_cycle;Signal;HPM_P1;HPM_P2
2019/07/10 00:00:31;;;;;;;1.6;1.5;;;;;;;13.5;58.70703;95417.88;;;;
2019/07/10 00:01:51;;;;;;;1.6;1.5;;;;;;;13.5;58.70703;95417.88;;;;
2019/07/10 00:02:53;;;;;;;1.6;1.5;;;;;;;13.5;58.70703;95417.88;;;;
2019/07/10 00:03:54;;;;;;;1.6;1.5;;;;;;;13.5;58.70703;95417.88;;;;
2019/07/10 00:04:55;;;;;;;1.6;1.5;;;;;;;13.5;58.70703;95417.88;;;;
2019/07/10 00:05:56;;;;;;;1.6;1.5;;;;;;;13.5;58.70703;95417.88;;;;
2019/07/10 00:06:57;;;;;;;1.6;1.5;;;;;;;13.5;58.70703;95417.88;;;;
2019/07/10 00:07:58;;;;;;;2.5;1.7;;;;;;;13.49;58.96582;95420.29;;;;
2019/07/10 00:08:59;;;;;;;2.5;1.7;;;;;;;13.49;58.96582;95420.29;;;;
2019/07/10 00:10:00;;;;;;;2.5;1.7;;;;;;;13.49;58.96582;95420.29;;;;
2019/07/10 00:11:02;;;;;;;2.5;1.7;;;;;;;13.49;58.96582;95420.29;;;;
2019/07/10 00:12:03;;;;;;;2.5;1.7;;;;;;;13.49;58.96582;95420.29;;;;
2019/07/10 00:13:04;;;;;;;2.5;1.7;;;;;;;13.49;58.96582;95420.29;;;;
2019/07/10 00:14:05;;;;;;;2.5;1.7;;;;;;;13.49;58.96582;95420.29;;;;
2019/07/10 00:15:06;;;;;;;2.5;1.7;;;;;;;13.49;58.96582;95420.29;;;;
2019/07/10 00:16:07;;;;;;;2.5;1.7;;;;;;;13.49;58.96582;95420.29;;;;
2019/07/10 00:17:08;;;;;;;2.5;1.7;;;;;;;13.49;58.96582;95420.29;;;;
2019/07/10 00:18:09;;;;;;;2.5;1.7;;;;;;;13.49;58.96582;95420.29;;;;
2019/07/10 00:19:11;;;;;;;2.75;1.6;;;;;;;13.52;59.18457;95419.92;;;;
2019/07/10 00:20:12;;;;;;;2.75;1.6;;;;;;;13.52;59.18457;95419.92;;;;
2019/07/10 00:21:13;;;;;;;2.75;1.6;;;;;;;13.52;59.18457;95419.92;;;;
2019/07/10 00:22:14;;;;;;;2.75;1.6;;;;;;;13.52;59.18457;95419.92;;;;
2019/07/10 00:23:15;;;;;;;2.75;1.6;;;;;;;13.52;59.18457;95419.92;;;;
2019/07/10 00:24:16;;;;;;;2.75;1.6;;;;;;;13.52;59.18457;95419.92;;;;
2019/07/10 00:25:17;;;;;;;2.75;1.6;;;;;;;13.52;59.18457;95419.92;;;;
2019/07/10 00:26:18;;;;;;;2.75;1.6;;;;;;;13.52;59.18457;95419.92;;;;
2019/07/10 00:27:19;;;;;;;2.75;1.6;;;;;;;13.52;59.18457;95419.92;;;;
2019/07/10 00:28:21;;;;;;;2.75;1.6;;;;;;;13.52;59.18457;95419.92;;;;
2019/07/10 00:29:22;;;;;;;3.1;1.75;;;;;;;13.41;59.29883;95419.5;;;;
2019/07/10 00:30:23;;;;;;;3.1;1.75;;;;;;;13.41;59.29883;95419.5;;;;
2019/07/10 00:31:24;;;;;;;3.1;1.75;;;;;;;13.41;59.29883;95419.5;;;;
2019/07/10 00:32:25;;;;;;;3.1;1.75;;;;;;;13.41;59.29883;95419.5;;;;
2019/07/10 00:33:26;;;;;;;3.1;1.75;;;;;;;13.41;59.29883;95419.5;;;;
2019/07/10 00:34:27;;;;;;;3.1;1.75;;;;;;;13.41;59.29883;95419.5;;;;
2019/07/10 00:35:28;;;;;;;3.1;1.75;;;;;;;13.41;59.29883;95419.5;;;;
2019/07/10 00:36:30;;;;;;;3.1;1.75;;;;;;;13.41;59.29883;95419.5;;;;
2019/07/10 00:37:31;;;;;;;3.1;1.75;;;;;;;13.41;59.29883;95419.5;;;;
2019/07/10 00:38:32;;;;;;;3.1;1.75;;;;;;;13.41;59.29883;95419.5;;;;
2019/07/10 00:39:33;;;;;;;3.1;1.75;;;;;;;13.41;59.29883;95419.5;;;;
2019/07/10 00:40:34;;;;;;;2.3;1.6;;;;;;;13.23;59.55762;95421.01;;;;
2019/07/10 00:41:35;;;;;;;2.3;1.6;;;;;;;13.23;59.55762;95421.01;;;;
2019/07/10 00:42:36;;;;;;;2.3;1.6;;;;;;;13.23;59.55762;95421.01;;;;
2019/07/10 00:43:37;;;;;;;2.3;1.6;;;;;;;13.23;59.55762;95421.01;;;;
2019/07/10 00:44:38;;;;;;;2.3;1.6;;;;;;;13.23;59.55762;95421.01;;;;
2019/07/10 00:45:39;;;;;;;2.3;1.6;;;;;;;13.23;59.55762;95421.01;;;;
2019/07/10 00:46:40;;;;;;;2.3;1.6;;;;;;;13.23;59.55762;95421.01;;;;
2019/07/10 00:47:41;;;;;;;2.3;1.6;;;;;;;13.23;59.55762;95421.01;;;;
2019/07/10 00:48:42;;;;;;;2.3;1.6;;;;;;;13.23;59.55762;95421.01;;;;
2019/07/10 00:49:44;;;;;;;2.3;1.6;;;;;;;13.23;59.55762;95421.01;;;;
2019/07/10 00:50:45;;;;;;;3.15;1.6;;;;;;;12.97;59.97559;95413.11;;;;
2019/07/10 00:51:46;;;;;;;3.15;1.6;;;;;;;12.97;59.97559;95413.11;;;;
2019/07/10 00:52:47;;;;;;;3.15;1.6;;;;;;;12.97;59.97559;95413.11;;;;
2019/07/10 00:53:48;;;;;;;3.15;1.6;;;;;;;12.97;59.97559;95413.11;;;;
2019/07/10 00:54:49;;;;;;;3.15;1.6;;;;;;;12.97;59.97559;95413.11;;;;
2019/07/10 00:55:50;;;;;;;3.15;1.6;;;;;;;12.97;59.97559;95413.11;;;;
2019/07/10 00:56:51;;;;;;;3.15;1.6;;;;;;;12.97;59.97559;95413.11;;;;
2019/07/10 00:57:52;;;;;;;3.15;1.6;;;;;;;12.97;59.97559;95413.11;;;;
2019/07/10 00:58:53;;;;;;;3.15;1.6;;;;;;;12.97;59.97559;95413.11;;;;
2019/07/10 00:59:55;;;;;;;3.15;1.6;;;;;;;12.97;59.97559;95413.11;;;;
2019/07/10 01:00:56;;;;;;;4.5;1.8;;;;;;;12.82;60.24707;95414.65;;;;
2019/07/10 01:01:57;;;;;;;4.5;1.8;;;;;;;12.82;60.24707;95414.65;;;;
2019/07/10 01:02:58;;;;;;;4.5;1.8;;;;;;;12.82;60.24707;95414.65;;;;
2019/07/10 01:03:59;;;;;;;4.5;1.8;;;;;;;12.82;60.24707;95414.65;;;;
2019/07/10 01:05:01;;;;;;;4.5;1.8;;;;;;;12.82;60.24707;95414.65;;;;
2019/07/10 01:06:02;;;;;;;4.5;1.8;;;;;;;12.82;60.24707;95414.65;;;;
2019/07/10 01:07:03;;;;;;;4.5;1.8;;;;;;;12.82;60.24707;95414.65;;;;
2019/07/10 01:08:05;;;;;;;4.5;1.8;;;;;;;12.82;60.24707;95414.65;;;;
2019/07/10 01:09:06;;;;;;;4.5;1.8;;;;;;;12.82;60.24707;95414.65;;;;
2019/07/10 01:10:07;;;;;;;4.5;1.8;;;;;;;12.82;60.24707;95414.65;;;;
2019/07/10 01:11:09;;;;;;;4.5;1.8;;;;;;;12.82;60.24707;95414.65;;;;
2019/07/10 01:12:10;;;;;;;2.8;1.6;;;;;;;12.71;60.53418;95411.49;;;;
2019/07/10 01:13:11;;;;;;;2.8;1.6;;;;;;;12.71;60.53418;95411.49;;;;
2019/07/10 01:14:13;;;;;;;2.8;1.6;;;;;;;12.71;60.53418;95411.49;;;;
2019/07/10 01:15:14;;;;;;;2.8;1.6;;;;;;;12.71;60.53418;95411.49;;;;
2019/07/10 01:16:16;;;;;;;2.8;1.6;;;;;;;12.71;60.53418;95411.49;;;;
2019/07/10 01:17:17;;;;;;;2.8;1.6;;;;;;;12.71;60.53418;95411.49;;;;
2019/07/10 01:18:18;;;;;;;2.8;1.6;;;;;;;12.71;60.53418;95411.49;;;;
2019/07/10 01:19:19;;;;;;;2.8;1.6;;;;;;;12.71;60.53418;95411.49;;;;
2019/07/10 01:20:20;;;;;;;2.8;1.6;;;;;;;12.71;60.53418;95411.49;;;;
2019/07/10 01:21:22;;;;;;;2.8;1.6;;;;;;;12.71;60.53418;95411.49;;;;
2019/07/10 01:22:23;;;;;;;2.85;1.6;;;;;;;12.64;60.9248;95407.18;;;;
2019/07/10 01:23:24;;;;;;;2.85;1.6;;;;;;;12.64;60.9248;95407.18;;;;
2019/07/10 01:24:25;;;;;;;2.85;1.6;;;;;;;12.64;60.9248;95407.18;;;;
2019/07/10 01:25:27;;;;;;;2.85;1.6;;;;;;;12.64;60.9248;95407.18;;;;
2019/07/10 01:26:28;;;;;;;2.85;1.6;;;;;;;12.64;60.9248;95407.18;;;;
2019/07/10 01:27:29;;;;;;;2.85;1.6;;;;;;;12.64;60.9248;95407.18;;;;
2019/07/10 01:28:30;;;;;;;2.85;1.6;;;;;;;12.64;60.9248;95407.18;;;;
2019/07/10 01:29:31;;;;;;;2.85;1.6;;;;;;;12.64;60.9248;95407.18;;;;
2019/07/10 01:30:32;;;;;;;2.85;1.6;;;;;;;12.64;60.9248;95407.18;;;;
2019/07/10 01:31:33;;;;;;;2.85;1.6;;;;;;;12.64;60.9248;95407.18;;;;
2019/07/10 01:32:35;;;;;;;2.85;1.6;;;;;;;12.64;60.9248;95407.18;;;;
2019/07/10 01:33:36;;;;;;;2.25;1.7;;;;;;;12.47;61.22363;95411.74;;;;
2019/07/10 01:34:37;;;;;;;2.25;1.7;;;;;;;12.47;61.22363;95411.74;;;;
2019/07/10 01:35:38;;;;;;;2.25;1.7;;;;;;;12.47;61.22363;95411.74;;;;
2019/07/10 01:36:39;;;;;;;2.25;1.7;;;;;;;12.47;61.22363;95411.74;;;;
2019/07/10 01:37:40;;;;;;;2.25;1.7;;;;;;;12.47;61.22363;95411.74;;;;
2019/07/10 01:38:41;;;;;;;2.25;1.7;;;;;;;12.47;61.22363;95411.74;;;;
2019/07/10 01:39:43;;;;;;;2.25;1.7;;;;;;;12.47;61.22363;95411.74;;;;
2019/07/10 01:40:44;;;;;;;2.25;1.7;;;;;;;12.47;61.22363;95411.74;;;;
2019/07/10 01:41:45;;;;;;;2.25;1.7;;;;;;;12.47;61.22363;95411.74;;;;
2019/07/10 01:42:46;;;;;;;2.25;1.7;;;;;;;12.47;61.22363;95411.74;;;;
2019/07/10 01:43:47;;;;;;;2.7;1.8;;;;;;;12.52;61.27441;95408.18;;;;
2019/07/10 01:44:48;;;;;;;2.7;1.8;;;;;;;12.52;61.27441;95408.18;;;;
2019/07/10 01:45:49;;;;;;;2.7;1.8;;;;;;;12.52;61.27441;95408.18;;;;
2019/07/10 01:46:51;;;;;;;2.7;1.8;;;;;;;12.52;61.27441;95408.18;;;;
2019/07/10 01:47:52;;;;;;;2.7;1.8;;;;;;;12.52;61.27441;95408.18;;;;
2019/07/10 01:48:53;;;;;;;2.7;1.8;;;;;;;12.52;61.27441;95408.18;;;;
2019/07/10 01:49:54;;;;;;;2.7;1.8;;;;;;;12.52;61.27441;95408.18;;;;
2019/07/10 01:50:55;;;;;;;2.7;1.8;;;;;;;12.52;61.27441;95408.18;;;;
2019/07/10 01:51:56;;;;;;;2.7;1.8;;;;;;;12.52;61.27441;95408.18;;;;
2019/07/10 01:52:58;;;;;;;2.7;1.8;;;;;;;12.52;61.27441;95408.18;;;;
2019/07/10 01:53:59;;;;;;;2.3;1.7;;;;;;;12.52;61.56445;95414.12;;;;
2019/07/10 01:55:00;;;;;;;2.3;1.7;;;;;;;12.52;61.56445;95414.12;;;;
2019/07/10 01:56:02;;;;;;;2.3;1.7;;;;;;;12.52;61.56445;95414.12;;;;
2019/07/10 01:57:03;;;;;;;2.3;1.7;;;;;;;12.52;61.56445;95414.12;;;;
2019/07/10 01:58:04;;;;;;;2.3;1.7;;;;;;;12.52;61.56445;95414.12;;;;
2019/07/10 01:59:06;;;;;;;2.3;1.7;;;;;;;12.52;61.56445;95414.12;;;;
2019/07/10 02:00:07;;;;;;;2.3;1.7;;;;;;;12.52;61.56445;95414.12;;;;
2019/07/10 02:01:09;;;;;;;2.3;1.7;;;;;;;12.52;61.56445;95414.12;;;;
2019/07/10 02:02:10;;;;;;;2.3;1.7;;;;;;;12.52;61.56445;95414.12;;;;
2019/07/10 02:03:11;;;;;;;2.3;1.7;;;;;;;12.52;61.56445;95414.12;;;;
2019/07/10 02:04:12;;;;;;;2.3;1.7;;;;;;;12.52;61.56445;95414.12;;;;
2019/07/10 02:05:13;;;;;;;3.1;1.6;;;;;;;12.62;61.64551;95416.08;;;;
2019/07/10 02:06:15;;;;;;;3.1;1.6;;;;;;;12.62;61.64551;95416.08;;;;
2019/07/10 02:07:16;;;;;;;3.1;1.6;;;;;;;12.62;61.64551;95416.08;;;;
2019/07/10 02:08:17;;;;;;;3.1;1.6;;;;;;;12.62;61.64551;95416.08;;;;
2019/07/10 02:09:18;;;;;;;3.1;1.6;;;;;;;12.62;61.64551;95416.08;;;;
2019/07/10 02:10:20;;;;;;;3.1;1.6;;;;;;;12.62;61.64551;95416.08;;;;
2019/07/10 02:11:21;;;;;;;3.1;1.6;;;;;;;12.62;61.64551;95416.08;;;;
2019/07/10 02:12:22;;;;;;;3.1;1.6;;;;;;;12.62;61.64551;95416.08;;;;
2019/07/10 02:13:23;;;;;;;3.1;1.6;;;;;;;12.62;61.64551;95416.08;;;;
2019/07/10 02:14:24;;;;;;;3.1;1.6;;;;;;;12.62;61.64551;95416.08;;;;
2019/07/10 02:15:26;;;;;;;2.45;1.7;;;;;;;12.63;61.56934;95418.24;;;;
2019/07/10 02:16:27;;;;;;;2.45;1.7;;;;;;;12.63;61.56934;95418.24;;;;
2019/07/10 02:17:28;;;;;;;2.45;1.7;;;;;;;12.63;61.56934;95418.24;;;;
2019/07/10 02:18:30;;;;;;;2.45;1.7;;;;;;;12.63;61.56934;95418.24;;;;
2019/07/10 02:19:31;;;;;;;2.45;1.7;;;;;;;12.63;61.56934;95418.24;;;;
2019/07/10 02:20:32;;;;;;;2.45;1.7;;;;;;;12.63;61.56934;95418.24;;;;
2019/07/10 02:21:34;;;;;;;2.45;1.7;;;;;;;12.63;61.56934;95418.24;;;;
2019/07/10 02:22:35;;;;;;;2.45;1.7;;;;;;;12.63;61.56934;95418.24;;;;
2019/07/10 02:23:36;;;;;;;2.45;1.7;;;;;;;12.63;61.56934;95418.24;;;;
2019/07/10 02:24:37;;;;;;;2.45;1.7;;;;;;;12.63;61.56934;95418.24;;;;
2019/07/10 02:25:38;;;;;;;2.45;1.7;;;;;;;12.63;61.56934;95418.24;;;;
2019/07/10 02:26:39;;;;;;;2;1.75;;;;;;;12.65;61.90723;95408.95;;;;
2019/07/10 02:27:41;;;;;;;2;1.75;;;;;;;12.65;61.90723;95408.95;;;;
2019/07/10 02:28:42;;;;;;;2;1.75;;;;;;;12.65;61.90723;95408.95;;;;
2019/07/10 02:29:43;;;;;;;2;1.75;;;;;;;12.65;61.90723;95408.95;;;;
2019/07/10 02:30:44;;;;;;;2;1.75;;;;;;;12.65;61.90723;95408.95;;;;
2019/07/10 02:31:45;;;;;;;2;1.75;;;;;;;12.65;61.90723;95408.95;;;;
2019/07/10 02:32:46;;;;;;;2;1.75;;;;;;;12.65;61.90723;95408.95;;;;
2019/07/10 02:33:48;;;;;;;2;1.75;;;;;;;12.65;61.90723;95408.95;;;;
2019/07/10 02:34:49;;;;;;;2;1.75;;;;;;;12.65;61.90723;95408.95;;;;
2019/07/10 02:35:50;;;;;;;2;1.75;;;;;;;12.65;61.90723;95408.95;;;;
2019/07/10 02:36:51;;;;;;;3.95;1.9;;;;;;;12.51;62.26563;95417.38;;;;
2019/07/10 02:37:52;;;;;;;3.95;1.9;;;;;;;12.51;62.26563;95417.38;;;;
2019/07/10 02:38:53;;;;;;;3.95;1.9;;;;;;;12.51;62.26563;95417.38;;;;
2019/07/10 02:39:55;;;;;;;3.95;1.9;;;;;;;12.51;62.26563;95417.38;;;;
2019/07/10 02:40:56;;;;;;;3.95;1.9;;;;;;;12.51;62.26563;95417.38;;;;
2019/07/10 02:41:57;;;;;;;3.95;1.9;;;;;;;12.51;62.26563;95417.38;;;;
2019/07/10 02:42:58;;;;;;;3.95;1.9;;;;;;;12.51;62.26563;95417.38;;;;
2019/07/10 02:43:59;;;;;;;3.95;1.9;;;;;;;12.51;62.26563;95417.38;;;;
2019/07/10 02:45:01;;;;;;;3.95;1.9;;;;;;;12.51;62.26563;95417.38;;;;
2019/07/10 02:46:04;;;;;;;3.95;1.9;;;;;;;12.51;62.26563;95417.38;;;;
2019/07/10 02:47:05;;;;;;;1.9;1.7;;;;;;;12.41;62.67188;95410.97;;;;
2019/07/10 02:48:06;;;;;;;1.9;1.7;;;;;;;12.41;62.67188;95410.97;;;;
2019/07/10 02:49:07;;;;;;;1.9;1.7;;;;;;;12.41;62.67188;95410.97;;;;
2019/07/10 02:50:09;;;;;;;1.9;1.7;;;;;;;12.41;62.67188;95410.97;;;;
2019/07/10 02:51:10;;;;;;;1.9;1.7;;;;;;;12.41;62.67188;95410.97;;;;
2019/07/10 02:52:11;;;;;;;1.9;1.7;;;;;;;12.41;62.67188;95410.97;;;;
2019/07/10 02:53:12;;;;;;;1.9;1.7;;;;;;;12.41;62.67188;95410.97;;;;
2019/07/10 02:54:13;;;;;;;1.9;1.7;;;;;;;12.41;62.67188;95410.97;;;;
2019/07/10 02:55:14;;;;;;;1.9;1.7;;;;;;;12.41;62.67188;95410.97;;;;
2019/07/10 02:56:15;;;;;;;1.9;1.7;;;;;;;12.41;62.67188;95410.97;;;;
2019/07/10 02:57:16;;;;;;;1.9;1.7;;;;;;;12.41;62.67188;95410.97;;;;
2019/07/10 02:58:17;;;;;;;2;1.6;;;;;;;12.39;63.01367;95414.45;;;;
2019/07/10 02:59:18;;;;;;;2;1.6;;;;;;;12.39;63.01367;95414.45;;;;
2019/07/10 03:00:20;;;;;;;2;1.6;;;;;;;12.39;63.01367;95414.45;;;;
2019/07/10 03:01:36;;;;;;;2;1.6;;;;;;;12.39;63.01367;95414.45;;;;
2019/07/10 03:02:37;;;;;;;2;1.6;;;;;;;12.39;63.01367;95414.45;;;;
2019/07/10 03:03:38;;;;;;;2;1.6;;;;;;;12.39;63.01367;95414.45;;;;
2019/07/10 03:04:40;;;;;;;2;1.6;;;;;;;12.39;63.01367;95414.45;;;;
2019/07/10 03:05:41;;;;;;;2;1.6;;;;;;;12.39;63.01367;95414.45;;;;
2019/07/10 03:06:42;;;;;;;2;1.6;;;;;;;12.39;63.01367;95414.45;;;;
2019/07/10 03:07:43;;;;;;;2;1.6;;;;;;;12.39;63.01367;95414.45;;;;
2019/07/10 03:08:44;;;;;;;2;1.7;;;;;;;12.38;63.23926;95410.5;;;;
2019/07/10 03:09:45;;;;;;;2;1.7;;;;;;;12.38;63.23926;95410.5;;;;
2019/07/10 03:10:46;;;;;;;2;1.7;;;;;;;12.38;63.23926;95410.5;;;;
2019/07/10 03:11:47;;;;;;;2;1.7;;;;;;;12.38;63.23926;95410.5;;;;
2019/07/10 03:12:48;;;;;;;2;1.7;;;;;;;12.38;63.23926;95410.5;;;;
2019/07/10 03:13:49;;;;;;;2;1.7;;;;;;;12.38;63.23926;95410.5;;;;
2019/07/10 03:14:51;;;;;;;2;1.7;;;;;;;12.38;63.23926;95410.5;;;;
2019/07/10 03:15:52;;;;;;;2;1.7;;;;;;;12.38;63.23926;95410.5;;;;
2019/07/10 03:16:53;;;;;;;2;1.7;;;;;;;12.38;63.23926;95410.5;;;;
2019/07/10 03:17:54;;;;;;;2;1.7;;;;;;;12.38;63.23926;95410.5;;;;
2019/07/10 03:18:55;;;;;;;3.1;1.9;;;;;;;12.13;63.40723;95414.09;;;;
2019/07/10 03:19:56;;;;;;;3.1;1.9;;;;;;;12.13;63.40723;95414.09;;;;
2019/07/10 03:20:57;;;;;;;3.1;1.9;;;;;;;12.13;63.40723;95414.09;;;;
2019/07/10 03:21:58;;;;;;;3.1;1.9;;;;;;;12.13;63.40723;95414.09;;;;
2019/07/10 03:22:59;;;;;;;3.1;1.9;;;;;;;12.13;63.40723;95414.09;;;;
2019/07/10 03:24:00;;;;;;;3.1;1.9;;;;;;;12.13;63.40723;95414.09;;;;
2019/07/10 03:25:01;;;;;;;3.1;1.9;;;;;;;12.13;63.40723;95414.09;;;;
2019/07/10 03:26:03;;;;;;;3.1;1.9;;;;;;;12.13;63.40723;95414.09;;;;
2019/07/10 03:27:04;;;;;;;3.1;1.9;;;;;;;12.13;63.40723;95414.09;;;;
2019/07/10 03:28:05;;;;;;;3.1;1.9;;;;;;;12.13;63.40723;95414.09;;;;
2019/07/10 03:29:06;;;;;;;3.1;1.9;;;;;;;12.13;63.40723;95414.09;;;;
2019/07/10 03:30:07;;;;;;;2.45;1.7;;;;;;;11.84;64.12891;95421.91;;;;
2019/07/10 03:31:09;;;;;;;2.45;1.7;;;;;;;11.84;64.12891;95421.91;;;;
2019/07/10 03:32:10;;;;;;;2.45;1.7;;;;;;;11.84;64.12891;95421.91;;;;
2019/07/10 03:33:11;;;;;;;2.45;1.7;;;;;;;11.84;64.12891;95421.91;;;;
2019/07/10 03:34:12;;;;;;;2.45;1.7;;;;;;;11.84;64.12891;95421.91;;;;
2019/07/10 03:35:13;;;;;;;2.45;1.7;;;;;;;11.84;64.12891;95421.91;;;;
2019/07/10 03:36:14;;;;;;;2.45;1.7;;;;;;;11.84;64.12891;95421.91;;;;
2019/07/10 03:37:15;;;;;;;2.45;1.7;;;;;;;11.84;64.12891;95421.91;;;;
2019/07/10 03:38:16;;;;;;;2.45;1.7;;;;;;;11.84;64.12891;95421.91;;;;
2019/07/10 03:39:18;;;;;;;2.45;1.7;;;;;;;11.84;64.12891;95421.91;;;;
2019/07/10 03:40:19;;;;;;;3;1.75;;;;;;;11.42;64.78906;95416.41;;;;
2019/07/10 03:41:20;;;;;;;3;1.75;;;;;;;11.42;64.78906;95416.41;;;;
2019/07/10 03:42:21;;;;;;;3;1.75;;;;;;;11.42;64.78906;95416.41;;;;
2019/07/10 03:43:22;;;;;;;3;1.75;;;;;;;11.42;64.78906;95416.41;;;;
2019/07/10 03:44:23;;;;;;;3;1.75;;;;;;;11.42;64.78906;95416.41;;;;
2019/07/10 03:45:24;;;;;;;3;1.75;;;;;;;11.42;64.78906;95416.41;;;;
2019/07/10 03:46:25;;;;;;;3;1.75;;;;;;;11.42;64.78906;95416.41;;;;
2019/07/10 03:47:26;;;;;;;3;1.75;;;;;;;11.42;64.78906;95416.41;;;;
2019/07/10 03:48:27;;;;;;;3;1.75;;;;;;;11.42;64.78906;95416.41;;;;
2019/07/10 03:49:29;;;;;;;3;1.75;;;;;;;11.42;64.78906;95416.41;;;;
2019/07/10 03:50:30;;;;;;;3;1.75;;;;;;;11.42;64.78906;95416.41;;;;
2019/07/10 03:51:31;;;;;;;2.85;1.9;;;;;;;11.08;65.50098;95422.53;;;;
2019/07/10 03:52:32;;;;;;;2.85;1.9;;;;;;;11.08;65.50098;95422.53;;;;
2019/07/10 03:53:33;;;;;;;2.85;1.9;;;;;;;11.08;65.50098;95422.53;;;;
2019/07/10 03:54:34;;;;;;;2.85;1.9;;;;;;;11.08;65.50098;95422.53;;;;
2019/07/10 03:55:35;;;;;;;2.85;1.9;;;;;;;11.08;65.50098;95422.53;;;;
2019/07/10 03:56:36;;;;;;;2.85;1.9;;;;;;;11.08;65.50098;95422.53;;;;
2019/07/10 03:57:37;;;;;;;2.85;1.9;;;;;;;11.08;65.50098;95422.53;;;;
2019/07/10 03:58:38;;;;;;;2.85;1.9;;;;;;;11.08;65.50098;95422.53;;;;
2019/07/10 03:59:40;;;;;;;2.85;1.9;;;;;;;11.08;65.50098;95422.53;;;;
2019/07/10 04:00:41;;;;;;;2.85;1.9;;;;;;;11.08;65.50098;95422.53;;;;
2019/07/10 04:01:42;;;;;;;2.649999;2.1;;;;;;;10.82;66.31055;95435.17;;;;
2019/07/10 04:02:43;;;;;;;2.649999;2.1;;;;;;;10.82;66.31055;95435.17;;;;
2019/07/10 04:03:44;;;;;;;2.649999;2.1;;;;;;;10.82;66.31055;95435.17;;;;
2019/07/10 04:04:45;;;;;;;2.649999;2.1;;;;;;;10.82;66.31055;95435.17;;;;
2019/07/10 04:05:46;;;;;;;2.649999;2.1;;;;;;;10.82;66.31055;95435.17;;;;
2019/07/10 04:06:47;;;;;;;2.649999;2.1;;;;;;;10.82;66.31055;95435.17;;;;
2019/07/10 04:07:48;;;;;;;2.649999;2.1;;;;;;;10.82;66.31055;95435.17;;;;
2019/07/10 04:08:49;;;;;;;2.649999;2.1;;;;;;;10.82;66.31055;95435.17;;;;
2019/07/10 04:09:51;;;;;;;2.649999;2.1;;;;;;;10.82;66.31055;95435.17;;;;
2019/07/10 04:10:52;;;;;;;2.649999;2.1;;;;;;;10.82;66.31055;95435.17;;;;
2019/07/10 04:11:53;;;;;;;3.1;2.1;;;;;;;10.82;66.9873;95438.28;;;;
2019/07/10 04:12:54;;;;;;;3.1;2.1;;;;;;;10.82;66.9873;95438.28;;;;
2019/07/10 04:13:55;;;;;;;3.1;2.1;;;;;;;10.82;66.9873;95438.28;;;;
2019/07/10 04:14:56;;;;;;;3.1;2.1;;;;;;;10.82;66.9873;95438.28;;;;
2019/07/10 04:15:57;;;;;;;3.1;2.1;;;;;;;10.82;66.9873;95438.28;;;;
2019/07/10 04:16:58;;;;;;;3.1;2.1;;;;;;;10.82;66.9873;95438.28;;;;
2019/07/10 04:17:59;;;;;;;3.1;2.1;;;;;;;10.82;66.9873;95438.28;;;;
2019/07/10 04:19:00;;;;;;;3.1;2.1;;;;;;;10.82;66.9873;95438.28;;;;
2019/07/10 04:20:01;;;;;;;3.1;2.1;;;;;;;10.82;66.9873;95438.28;;;;
2019/07/10 04:21:03;;;;;;;3.1;2.1;;;;;;;10.82;66.9873;95438.28;;;;
2019/07/10 04:22:04;;;;;;;3.1;2.1;;;;;;;10.82;66.9873;95438.28;;;;
2019/07/10 04:23:05;;;;;;;2.850001;2.2;;;;;;;10.87;67.54102;95433.51;;;;
2019/07/10 04:24:06;;;;;;;2.850001;2.2;;;;;;;10.87;67.54102;95433.51;;;;
2019/07/10 04:25:08;;;;;;;2.850001;2.2;;;;;;;10.87;67.54102;95433.51;;;;
2019/07/10 04:26:09;;;;;;;2.850001;2.2;;;;;;;10.87;67.54102;95433.51;;;;
2019/07/10 04:27:10;;;;;;;2.850001;2.2;;;;;;;10.87;67.54102;95433.51;;;;
2019/07/10 04:28:11;;;;;;;2.850001;2.2;;;;;;;10.87;67.54102;95433.51;;;;
2019/07/10 04:29:12;;;;;;;2.850001;2.2;;;;;;;10.87;67.54102;95433.51;;;;
2019/07/10 04:30:13;;;;;;;2.850001;2.2;;;;;;;10.87;67.54102;95433.51;;;;
2019/07/10 04:31:15;;;;;;;2.850001;2.2;;;;;;;10.87;67.54102;95433.51;;;;
2019/07/10 04:32:16;;;;;;;2.850001;2.2;;;;;;;10.87;67.54102;95433.51;;;;
2019/07/10 04:33:17;;;;;;;3.1;2.55;;;;;;;10.96;68.03906;95439.7;;;;
2019/07/10 04:34:18;;;;;;;3.1;2.55;;;;;;;10.96;68.03906;95439.7;;;;
2019/07/10 04:35:20;;;;;;;3.1;2.55;;;;;;;10.96;68.03906;95439.7;;;;
2019/07/10 04:36:21;;;;;;;3.1;2.55;;;;;;;10.96;68.03906;95439.7;;;;
2019/07/10 04:37:22;;;;;;;3.1;2.55;;;;;;;10.96;68.03906;95439.7;;;;
2019/07/10 04:38:23;;;;;;;3.1;2.55;;;;;;;10.96;68.03906;95439.7;;;;
2019/07/10 04:39:24;;;;;;;3.1;2.55;;;;;;;10.96;68.03906;95439.7;;;;
2019/07/10 04:40:25;;;;;;;3.1;2.55;;;;;;;10.96;68.03906;95439.7;;;;
2019/07/10 04:41:26;;;;;;;3.1;2.55;;;;;;;10.96;68.03906;95439.7;;;;
2019/07/10 04:42:28;;;;;;;3.1;2.55;;;;;;;10.96;68.03906;95439.7;;;;
2019/07/10 04:43:29;;;;;;;3.1;2.55;;;;;;;10.96;68.03906;95439.7;;;;
2019/07/10 04:44:30;;;;;;;3.1;2.4;;;;;;;11.17;68.16602;95430.72;;;;
2019/07/10 04:45:31;;;;;;;3.1;2.4;;;;;;;11.17;68.16602;95430.72;;;;
2019/07/10 04:46:32;;;;;;;3.1;2.4;;;;;;;11.17;68.16602;95430.72;;;;
2019/07/10 04:47:33;;;;;;;3.1;2.4;;;;;;;11.17;68.16602;95430.72;;;;
2019/07/10 04:48:34;;;;;;;3.1;2.4;;;;;;;11.17;68.16602;95430.72;;;;
2019/07/10 04:49:35;;;;;;;3.1;2.4;;;;;;;11.17;68.16602;95430.72;;;;
2019/07/10 04:50:36;;;;;;;3.1;2.4;;;;;;;11.17;68.16602;95430.72;;;;
2019/07/10 04:51:38;;;;;;;3.1;2.4;;;;;;;11.17;68.16602;95430.72;;;;
2019/07/10 04:52:39;;;;;;;3.1;2.4;;;;;;;11.17;68.16602;95430.72;;;;
2019/07/10 04:53:40;;;;;;;3.1;2.4;;;;;;;11.17;68.16602;95430.72;;;;
2019/07/10 04:54:41;;;;;;;3.3;2.4;;;;;;;11.59;68.09277;95437.06;;;;
2019/07/10 04:55:42;;;;;;;3.3;2.4;;;;;;;11.59;68.09277;95437.06;;;;
2019/07/10 04:56:43;;;;;;;3.3;2.4;;;;;;;11.59;68.09277;95437.06;;;;
2019/07/10 04:57:44;;;;;;;3.3;2.4;;;;;;;11.59;68.09277;95437.06;;;;
2019/07/10 04:58:45;;;;;;;3.3;2.4;;;;;;;11.59;68.09277;95437.06;;;;
2019/07/10 04:59:46;;;;;;;3.3;2.4;;;;;;;11.59;68.09277;95437.06;;;;
2019/07/10 05:00:47;;;;;;;3.3;2.4;;;;;;;11.59;68.09277;95437.06;;;;
2019/07/10 05:01:48;;;;;;;3.3;2.4;;;;;;;11.59;68.09277;95437.06;;;;
2019/07/10 05:02:49;;;;;;;3.3;2.4;;;;;;;11.59;68.09277;95437.06;;;;
2019/07/10 05:03:51;;;;;;;3.3;2.4;;;;;;;11.59;68.09277;95437.06;;;;
2019/07/10 05:04:52;;;;;;;2.6;2.4;;;;;;;11.93;67.79102;95438.47;;;;
2019/07/10 05:05:53;;;;;;;2.6;2.4;;;;;;;11.93;67.79102;95438.47;;;;
2019/07/10 05:06:54;;;;;;;2.6;2.4;;;;;;;11.93;67.79102;95438.47;;;;
2019/07/10 05:07:55;;;;;;;2.6;2.4;;;;;;;11.93;67.79102;95438.47;;;;
2019/07/10 05:08:56;;;;;;;2.6;2.4;;;;;;;11.93;67.79102;95438.47;;;;
2019/07/10 05:09:57;;;;;;;2.6;2.4;;;;;;;11.93;67.79102;95438.47;;;;
2019/07/10 05:10:58;;;;;;;2.6;2.4;;;;;;;11.93;67.79102;95438.47;;;;
2019/07/10 05:11:59;;;;;;;2.6;2.4;;;;;;;11.93;67.79102;95438.47;;;;
2019/07/10 05:13:00;;;;;;;2.6;2.4;;;;;;;11.93;67.79102;95438.47;;;;
2019/07/10 05:14:01;;;;;;;2.6;2.4;;;;;;;11.93;67.79102;95438.47;;;;
2019/07/10 05:15:03;;;;;;;2.6;2.4;;;;;;;11.93;67.79102;95438.47;;;;
2019/07/10 05:16:04;;;;;;;2.8;2.2;;;;;;;12.42;67.7373;95443.22;;;;
2019/07/10 05:17:05;;;;;;;2.8;2.2;;;;;;;12.42;67.7373;95443.22;;;;
2019/07/10 05:18:07;;;;;;;2.8;2.2;;;;;;;12.42;67.7373;95443.22;;;;
2019/07/10 05:19:08;;;;;;;2.8;2.2;;;;;;;12.42;67.7373;95443.22;;;;
2019/07/10 05:20:09;;;;;;;2.8;2.2;;;;;;;12.42;67.7373;95443.22;;;;
2019/07/10 05:21:10;;;;;;;2.8;2.2;;;;;;;12.42;67.7373;95443.22;;;;
2019/07/10 05:22:11;;;;;;;2.8;2.2;;;;;;;12.42;67.7373;95443.22;;;;
2019/07/10 05:23:12;;;;;;;2.8;2.2;;;;;;;12.42;67.7373;95443.22;;;;
2019/07/10 05:24:13;;;;;;;2.8;2.2;;;;;;;12.42;67.7373;95443.22;;;;
2019/07/10 05:25:14;;;;;;;2.8;2.2;;;;;;;12.42;67.7373;95443.22;;;;
2019/07/10 05:26:16;;;;;;;3.3;2.3;;;;;;;13.14;66.90039;95438.78;;;;
2019/07/10 05:27:17;;;;;;;3.3;2.3;;;;;;;13.14;66.90039;95438.78;;;;
2019/07/10 05:28:18;;;;;;;3.3;2.3;;;;;;;13.14;66.90039;95438.78;;;;
2019/07/10 05:29:19;;;;;;;3.3;2.3;;;;;;;13.14;66.90039;95438.78;;;;
2019/07/10 05:30:21;;;;;;;3.3;2.3;;;;;;;13.14;66.90039;95438.78;;;;
2019/07/10 05:31:22;;;;;;;3.3;2.3;;;;;;;13.14;66.90039;95438.78;;;;
2019/07/10 05:32:23;;;;;;;3.3;2.3;;;;;;;13.14;66.90039;95438.78;;;;
2019/07/10 05:33:24;;;;;;;3.3;2.3;;;;;;;13.14;66.90039;95438.78;;;;
2019/07/10 05:34:25;;;;;;;3.3;2.3;;;;;;;13.14;66.90039;95438.78;;;;
2019/07/10 05:35:26;;;;;;;3.3;2.3;;;;;;;13.14;66.90039;95438.78;;;;
2019/07/10 05:36:27;;;;;;;3.3;2.3;;;;;;;13.14;66.90039;95438.78;;;;
2019/07/10 05:37:29;;;;;;;3.35;2.1;;;;;;;13.69;65.89258;95439.71;;;;
2019/07/10 05:38:30;;;;;;;3.35;2.1;;;;;;;13.69;65.89258;95439.71;;;;
2019/07/10 05:39:31;;;;;;;3.35;2.1;;;;;;;13.69;65.89258;95439.71;;;;
2019/07/10 05:40:32;;;;;;;3.35;2.1;;;;;;;13.69;65.89258;95439.71;;;;
2019/07/10 05:41:33;;;;;;;3.35;2.1;;;;;;;13.69;65.89258;95439.71;;;;
2019/07/10 05:42:34;;;;;;;3.35;2.1;;;;;;;13.69;65.89258;95439.71;;;;
2019/07/10 05:43:36;;;;;;;3.35;2.1;;;;;;;13.69;65.89258;95439.71;;;;
2019/07/10 05:44:37;;;;;;;3.35;2.1;;;;;;;13.69;65.89258;95439.71;;;;
2019/07/10 05:45:38;;;;;;;3.35;2.1;;;;;;;13.69;65.89258;95439.71;;;;
2019/07/10 05:46:40;;;;;;;3.35;2.1;;;;;;;13.69;65.89258;95439.71;;;;
2019/07/10 05:47:41;;;;;;;2.4;2.2;;;;;;;13.67;65.91113;95434.12;;;;
2019/07/10 05:48:43;;;;;;;2.4;2.2;;;;;;;13.67;65.91113;95434.12;;;;
2019/07/10 05:49:44;;;;;;;2.4;2.2;;;;;;;13.67;65.91113;95434.12;;;;
2019/07/10 05:50:45;;;;;;;2.4;2.2;;;;;;;13.67;65.91113;95434.12;;;;
2019/07/10 05:51:46;;;;;;;2.4;2.2;;;;;;;13.67;65.91113;95434.12;;;;
2019/07/10 05:52:48;;;;;;;2.4;2.2;;;;;;;13.67;65.91113;95434.12;;;;
2019/07/10 05:53:49;;;;;;;2.4;2.2;;;;;;;13.67;65.91113;95434.12;;;;
2019/07/10 05:54:50;;;;;;;2.4;2.2;;;;;;;13.67;65.91113;95434.12;;;;